createdAt,value
2023-12-21T00:00:12.778Z,609.00
2023-12-21T00:01:12.899Z,606.00
2023-12-21T00:03:12.921Z,611.00
2023-12-21T00:04:13.084Z,607.00
2023-12-21T00:05:13.110Z,608.00
2023-12-21T00:06:13.616Z,608.00
2023-12-21T00:07:13.286Z,608.00
2023-12-21T00:08:13.225Z,607.00
2023-12-21T00:09:13.179Z,609.00
2023-12-21T00:10:13.262Z,611.00
2023-12-21T00:11:13.316Z,610.00
2023-12-21T00:12:13.341Z,608.00
2023-12-21T00:13:13.382Z,613.00
2023-12-21T00:14:13.389Z,611.00
2023-12-21T00:15:13.411Z,609.00
2023-12-21T00:16:13.565Z,611.00
2023-12-21T00:17:13.547Z,609.00
2023-12-21T00:18:13.688Z,613.00
2023-12-21T00:19:13.698Z,608.00
2023-12-21T00:20:13.772Z,611.00
2023-12-21T00:21:13.793Z,611.00
2023-12-21T00:22:13.817Z,611.00
2023-12-21T00:23:13.810Z,609.00
2023-12-21T00:24:13.876Z,610.00
2023-12-21T00:25:13.928Z,611.00
2023-12-21T00:26:13.939Z,610.00
2023-12-21T00:27:13.996Z,608.00
2023-12-21T00:28:14.064Z,608.00
2023-12-21T00:29:14.091Z,605.00
2023-12-21T00:30:14.170Z,606.00
2023-12-21T00:31:14.223Z,607.00
2023-12-21T00:32:14.255Z,610.00
2023-12-21T00:33:14.330Z,604.00
2023-12-21T00:34:14.415Z,610.00
2023-12-21T00:35:14.404Z,608.00
2023-12-21T00:36:14.461Z,606.00
2023-12-21T00:37:14.574Z,607.00
2023-12-21T00:38:14.557Z,605.00
2023-12-21T00:39:14.618Z,606.00
2023-12-21T00:40:14.723Z,607.00
2023-12-21T00:41:14.779Z,605.00
2023-12-21T00:42:14.788Z,607.00
2023-12-21T00:43:14.877Z,604.00
2023-12-21T00:44:14.934Z,609.00
2023-12-21T00:45:14.977Z,605.00
2023-12-21T00:46:15.067Z,608.00
2023-12-21T00:47:15.087Z,606.00
2023-12-21T00:48:15.154Z,605.00
2023-12-21T00:49:15.188Z,605.00
2023-12-21T00:50:15.211Z,607.00
2023-12-21T00:51:15.241Z,606.00
2023-12-21T00:52:15.293Z,609.00
2023-12-21T00:53:15.335Z,603.00
2023-12-21T00:54:15.407Z,605.00
2023-12-21T00:55:15.490Z,605.00
2023-12-21T00:56:15.531Z,604.00
2023-12-21T00:57:15.562Z,601.00
2023-12-21T00:58:15.609Z,605.00
2023-12-21T00:59:15.661Z,605.00
2023-12-21T01:00:15.692Z,601.00
2023-12-21T01:01:15.805Z,602.00
2023-12-21T01:02:15.846Z,605.00
2023-12-21T01:03:15.874Z,606.00
2023-12-21T01:04:15.912Z,611.00
2023-12-21T01:05:16.040Z,611.00
2023-12-21T01:06:16.012Z,611.00
2023-12-21T01:07:16.060Z,613.00
2023-12-21T01:08:16.091Z,618.00
2023-12-21T01:09:16.139Z,620.00
2023-12-21T01:10:16.214Z,619.00
2023-12-21T01:11:16.252Z,617.00
2023-12-21T01:12:16.296Z,616.00
2023-12-21T01:13:16.362Z,618.00
2023-12-21T01:14:16.376Z,619.00
2023-12-21T01:15:16.417Z,619.00
2023-12-21T01:16:16.504Z,619.00
2023-12-21T01:17:16.524Z,616.00
2023-12-21T01:18:16.649Z,613.00
2023-12-21T01:19:16.711Z,612.00
2023-12-21T01:20:16.797Z,611.00
2023-12-21T01:21:16.718Z,610.00
2023-12-21T01:22:16.819Z,610.00
2023-12-21T01:23:16.831Z,606.00
2023-12-21T01:24:16.903Z,608.00
2023-12-21T01:25:17.078Z,605.00
2023-12-21T01:26:17.033Z,612.00
2023-12-21T01:27:26.084Z,610.00
2023-12-21T01:28:18.128Z,610.00
2023-12-21T01:29:17.116Z,610.00
2023-12-21T01:30:17.160Z,610.00
2023-12-21T01:31:17.211Z,610.00
2023-12-21T01:32:17.166Z,608.00
2023-12-21T01:33:17.272Z,615.00
2023-12-21T01:34:17.303Z,608.00
2023-12-21T01:35:17.221Z,611.00
2023-12-21T01:36:17.209Z,609.00
2023-12-21T01:37:17.239Z,609.00
2023-12-21T01:38:17.238Z,611.00
2023-12-21T01:39:19.958Z,612.00
2023-12-21T01:40:17.341Z,613.00
2023-12-21T01:41:17.257Z,611.00
2023-12-21T01:42:17.266Z,615.00
2023-12-21T01:43:17.334Z,614.00
2023-12-21T01:44:17.347Z,605.00
2023-12-21T01:45:17.316Z,611.00
2023-12-21T01:46:17.382Z,611.00
2023-12-21T01:47:17.350Z,610.00
2023-12-21T01:48:17.478Z,612.00
2023-12-21T01:49:17.463Z,606.00
2023-12-21T01:50:17.389Z,608.00
2023-12-21T01:51:17.405Z,609.00
2023-12-21T01:52:17.439Z,609.00
2023-12-21T01:53:17.435Z,611.00
2023-12-21T01:54:17.468Z,610.00
2023-12-21T01:55:17.482Z,608.00
2023-12-21T01:56:17.483Z,610.00
2023-12-21T01:57:17.497Z,610.00
2023-12-21T01:58:17.536Z,607.00
2023-12-21T01:59:17.523Z,609.00
2023-12-21T02:00:17.535Z,613.00
2023-12-21T02:01:17.662Z,613.00
2023-12-21T02:02:17.604Z,609.00
2023-12-21T02:03:17.564Z,607.00
2023-12-21T02:04:17.671Z,610.00
2023-12-21T02:05:17.598Z,613.00
2023-12-21T02:06:17.730Z,607.00
2023-12-21T02:07:17.639Z,610.00
2023-12-21T02:08:17.665Z,608.00
2023-12-21T02:09:17.635Z,607.00
2023-12-21T02:10:17.720Z,610.00
2023-12-21T02:11:17.685Z,612.00
2023-12-21T02:12:17.718Z,615.00
2023-12-21T02:13:17.734Z,611.00
2023-12-21T02:14:17.723Z,613.00
2023-12-21T02:15:17.727Z,609.00
2023-12-21T02:16:17.761Z,607.00
2023-12-21T02:17:17.734Z,611.00
2023-12-21T02:18:17.793Z,615.00
2023-12-21T02:19:17.821Z,618.00
2023-12-21T02:20:17.780Z,615.00
2023-12-21T02:21:17.770Z,616.00
2023-12-21T02:22:17.826Z,616.00
2023-12-21T02:23:17.793Z,614.00
2023-12-21T02:24:17.782Z,609.00
2023-12-21T02:25:17.852Z,608.00
2023-12-21T02:26:17.814Z,613.00
2023-12-21T02:27:17.837Z,612.00
2023-12-21T02:28:17.844Z,613.00
2023-12-21T02:29:17.865Z,613.00
2023-12-21T02:30:17.994Z,609.00
2023-12-21T02:31:17.994Z,609.00
2023-12-21T02:32:18.013Z,611.00
2023-12-21T02:33:18.116Z,609.00
2023-12-21T02:34:18.813Z,610.00
2023-12-21T02:35:18.125Z,610.00
2023-12-21T02:36:18.198Z,617.00
2023-12-21T02:37:18.243Z,608.00
2023-12-21T02:38:18.237Z,611.00
2023-12-21T02:39:18.269Z,608.00
2023-12-21T02:40:18.355Z,612.00
2023-12-21T02:41:18.291Z,609.00
2023-12-21T02:42:18.322Z,611.00
2023-12-21T02:43:18.385Z,613.00
2023-12-21T02:44:18.406Z,609.00
2023-12-21T02:45:18.461Z,611.00
2023-12-21T02:46:18.499Z,611.00
2023-12-21T02:47:18.529Z,610.00
2023-12-21T02:48:18.605Z,612.00
2023-12-21T02:49:18.665Z,607.00
2023-12-21T02:50:18.681Z,610.00
2023-12-21T02:51:18.663Z,617.00
2023-12-21T02:52:18.677Z,611.00
2023-12-21T02:53:18.738Z,612.00
2023-12-21T02:54:18.767Z,612.00
2023-12-21T02:55:18.839Z,611.00
2023-12-21T02:56:18.822Z,611.00
2023-12-21T02:57:18.866Z,609.00
2023-12-21T02:58:19.021Z,607.00
2023-12-21T02:59:18.966Z,610.00
2023-12-21T03:00:19.071Z,605.00
2023-12-21T03:01:19.160Z,610.00
2023-12-21T03:02:19.155Z,607.00
2023-12-21T03:03:19.240Z,609.00
2023-12-21T03:04:19.388Z,611.00
2023-12-21T03:05:19.356Z,608.00
2023-12-21T03:06:19.339Z,605.00
2023-12-21T03:07:19.412Z,610.00
2023-12-21T03:08:19.438Z,607.00
2023-12-21T03:09:19.472Z,611.00
2023-12-21T03:10:19.620Z,607.00
2023-12-21T03:11:19.536Z,606.00
2023-12-21T03:12:19.573Z,602.00
2023-12-21T03:13:19.644Z,605.00
2023-12-21T03:14:19.647Z,606.00
2023-12-21T03:15:19.687Z,603.00
2023-12-21T03:16:19.864Z,604.00
2023-12-21T03:17:19.795Z,605.00
2023-12-21T03:18:19.860Z,604.00
2023-12-21T03:19:19.910Z,607.00
2023-12-21T03:20:19.989Z,604.00
2023-12-21T03:21:19.994Z,604.00
2023-12-21T03:22:20.096Z,603.00
2023-12-21T03:23:20.115Z,601.00
2023-12-21T03:24:20.131Z,603.00
2023-12-21T03:25:20.248Z,601.00
2023-12-21T03:26:20.226Z,604.00
2023-12-21T03:27:20.257Z,606.00
2023-12-21T03:28:20.340Z,603.00
2023-12-21T03:29:20.351Z,606.00
2023-12-21T03:30:20.451Z,611.00
2023-12-21T03:31:20.434Z,608.00
2023-12-21T03:32:20.531Z,609.00
2023-12-21T03:33:20.619Z,611.00
2023-12-21T03:34:20.788Z,603.00
2023-12-21T03:35:20.653Z,608.00
2023-12-21T03:36:20.692Z,607.00
2023-12-21T03:37:20.785Z,604.00
2023-12-21T03:38:20.777Z,606.00
2023-12-21T03:39:20.826Z,603.00
2023-12-21T03:40:20.982Z,606.00
2023-12-21T03:41:20.959Z,602.00
2023-12-21T03:42:20.983Z,606.00
2023-12-21T03:43:21.093Z,607.00
2023-12-21T03:44:21.091Z,603.00
2023-12-21T03:45:21.147Z,607.00
2023-12-21T03:46:21.263Z,607.00
2023-12-21T03:47:21.269Z,605.00
2023-12-21T03:48:21.337Z,611.00
2023-12-21T03:49:21.478Z,605.00
2023-12-21T03:50:21.444Z,606.00
2023-12-21T03:51:21.496Z,604.00
2023-12-21T03:52:21.545Z,608.00
2023-12-21T03:53:21.599Z,605.00
2023-12-21T03:54:21.644Z,606.00
2023-12-21T03:55:21.717Z,605.00
2023-12-21T03:56:21.747Z,608.00
2023-12-21T03:57:21.800Z,603.00
2023-12-21T03:58:21.907Z,606.00
2023-12-21T03:59:21.877Z,603.00
2023-12-21T04:00:21.969Z,605.00
2023-12-21T04:01:22.049Z,610.00
2023-12-21T04:02:22.023Z,608.00
2023-12-21T04:03:22.100Z,607.00
2023-12-21T04:04:22.254Z,605.00
2023-12-21T04:05:22.180Z,604.00
2023-12-21T04:06:22.234Z,608.00
2023-12-21T04:07:22.299Z,605.00
2023-12-21T04:08:22.363Z,606.00
2023-12-21T04:09:22.398Z,601.00
2023-12-21T04:10:22.468Z,609.00
2023-12-21T04:11:22.516Z,606.00
2023-12-21T04:12:22.564Z,606.00
2023-12-21T04:13:22.650Z,608.00
2023-12-21T04:14:22.681Z,604.00
2023-12-21T04:15:22.727Z,603.00
2023-12-21T04:16:22.793Z,608.00
2023-12-21T04:17:22.847Z,606.00
2023-12-21T04:18:23.012Z,607.00
2023-12-21T04:19:23.042Z,604.00
2023-12-21T04:20:23.044Z,604.00
2023-12-21T04:21:23.096Z,603.00
2023-12-21T04:22:23.190Z,604.00
2023-12-21T04:23:23.220Z,602.00
2023-12-21T04:24:23.278Z,602.00
2023-12-21T04:25:23.461Z,603.00
2023-12-21T04:26:23.406Z,603.00
2023-12-21T04:27:23.406Z,607.00
2023-12-21T04:28:23.480Z,608.00
2023-12-21T04:29:23.532Z,604.00
2023-12-21T04:30:23.646Z,604.00
2023-12-21T04:31:23.851Z,607.00
2023-12-21T04:32:23.788Z,604.00
2023-12-21T04:33:23.832Z,605.00
2023-12-21T04:34:23.859Z,606.00
2023-12-21T04:35:31.227Z,600.00
2023-12-21T04:36:31.239Z,600.00
2023-12-21T04:37:31.146Z,600.00
2023-12-21T04:38:31.104Z,600.00
2023-12-21T04:39:31.090Z,600.00
2023-12-21T04:40:31.181Z,601.00
2023-12-21T04:41:31.243Z,601.00
2023-12-21T04:42:31.240Z,603.00
2023-12-21T04:43:31.122Z,605.00
2023-12-21T04:44:31.078Z,602.00
2023-12-21T04:45:31.088Z,601.00
2023-12-21T04:46:31.084Z,603.00
2023-12-21T04:47:31.262Z,605.00
2023-12-21T04:48:31.296Z,604.00
2023-12-21T04:49:31.223Z,604.00
2023-12-21T04:50:31.098Z,602.00
2023-12-21T04:51:31.241Z,606.00
2023-12-21T04:52:31.152Z,605.00
2023-12-21T04:53:31.244Z,606.00
2023-12-21T04:54:31.101Z,603.00
2023-12-21T04:55:31.129Z,604.00
2023-12-21T04:56:31.236Z,607.00
2023-12-21T04:57:31.104Z,606.00
2023-12-21T04:58:31.158Z,602.00
2023-12-21T04:59:31.245Z,607.00
2023-12-21T05:00:31.121Z,603.00
2023-12-21T05:01:31.126Z,610.00
2023-12-21T05:02:31.102Z,607.00
2023-12-21T05:03:31.125Z,605.00
2023-12-21T05:04:31.309Z,607.00
2023-12-21T05:05:31.103Z,604.00
2023-12-21T05:06:31.093Z,607.00
2023-12-21T05:07:31.130Z,609.00
2023-12-21T05:08:31.118Z,605.00
2023-12-21T05:09:31.128Z,605.00
2023-12-21T05:10:31.132Z,609.00
2023-12-21T05:11:31.117Z,610.00
2023-12-21T05:12:31.119Z,603.00
2023-12-21T05:13:31.161Z,603.00
2023-12-21T05:14:31.141Z,605.00
2023-12-21T05:15:31.157Z,605.00
2023-12-21T05:16:31.167Z,608.00
2023-12-21T05:17:31.146Z,610.00
2023-12-21T05:18:31.204Z,610.00
2023-12-21T05:19:31.193Z,609.00
2023-12-21T05:20:31.151Z,610.00
2023-12-21T05:21:31.171Z,609.00
2023-12-21T05:22:31.178Z,605.00
2023-12-21T05:23:31.173Z,602.00
2023-12-21T05:24:31.215Z,603.00
2023-12-21T05:25:31.284Z,603.00
2023-12-21T05:26:31.300Z,600.00
2023-12-21T05:27:31.361Z,604.00
2023-12-21T05:28:31.406Z,604.00
2023-12-21T05:29:31.410Z,601.00
2023-12-21T05:30:31.470Z,600.00
2023-12-21T05:31:31.550Z,602.00
2023-12-21T05:32:31.503Z,610.00
2023-12-21T05:33:31.555Z,605.00
2023-12-21T05:34:31.640Z,607.00
2023-12-21T05:35:31.642Z,602.00
2023-12-21T05:36:31.670Z,607.00
2023-12-21T05:37:31.722Z,606.00
2023-12-21T05:38:31.731Z,608.00
2023-12-21T05:39:31.768Z,606.00
2023-12-21T05:40:31.905Z,608.00
2023-12-21T05:41:31.894Z,608.00
2023-12-21T05:42:31.887Z,606.00
2023-12-21T05:43:31.958Z,601.00
2023-12-21T05:44:31.971Z,603.00
2023-12-21T05:45:32.019Z,608.00
2023-12-21T05:46:32.123Z,603.00
2023-12-21T05:47:32.153Z,607.00
2023-12-21T05:48:32.196Z,608.00
2023-12-21T05:49:32.222Z,600.00
2023-12-21T05:50:32.165Z,604.00
2023-12-21T05:51:32.208Z,608.00
2023-12-21T05:52:32.265Z,606.00
2023-12-21T05:53:32.263Z,609.00
2023-12-21T05:54:32.309Z,607.00
2023-12-21T05:55:32.400Z,605.00
2023-12-21T05:56:32.369Z,607.00
2023-12-21T05:57:32.414Z,612.00
2023-12-21T05:58:32.483Z,611.00
2023-12-21T05:59:32.417Z,616.00
2023-12-21T06:00:32.462Z,613.00
2023-12-21T06:01:34.204Z,613.00
2023-12-21T06:02:32.509Z,614.00
2023-12-21T06:03:32.524Z,614.00
2023-12-21T06:04:32.565Z,617.00
2023-12-21T06:05:32.555Z,613.00
2023-12-21T06:06:32.619Z,615.00
2023-12-21T06:07:32.615Z,615.00
2023-12-21T06:08:32.654Z,611.00
2023-12-21T06:09:32.654Z,614.00
2023-12-21T06:10:32.754Z,616.00
2023-12-21T06:11:32.765Z,614.00
2023-12-21T06:12:32.772Z,616.00
2023-12-21T06:13:32.884Z,615.00
2023-12-21T06:14:32.869Z,617.00
2023-12-21T06:15:32.979Z,617.00
2023-12-21T06:16:32.998Z,619.00
2023-12-21T06:17:33.023Z,614.00
2023-12-21T06:18:33.068Z,611.00
2023-12-21T06:19:33.057Z,618.00
2023-12-21T06:20:33.047Z,619.00
2023-12-21T06:21:33.083Z,617.00
2023-12-21T06:22:33.113Z,617.00
2023-12-21T06:23:33.131Z,615.00
2023-12-21T06:24:33.130Z,615.00
2023-12-21T06:25:34.456Z,612.00
2023-12-21T06:26:33.169Z,614.00
2023-12-21T06:27:33.158Z,615.00
2023-12-21T06:28:33.190Z,610.00
2023-12-21T06:29:33.171Z,604.00
2023-12-21T06:30:33.195Z,604.00
2023-12-21T06:31:34.361Z,600.00
2023-12-21T06:32:33.354Z,600.00
2023-12-21T06:33:33.368Z,601.00
2023-12-21T06:34:33.354Z,604.00
2023-12-21T06:35:33.229Z,609.00
2023-12-21T06:36:33.251Z,612.00
2023-12-21T06:37:33.343Z,610.00
2023-12-21T06:38:33.230Z,623.00
2023-12-21T06:39:33.259Z,622.00
2023-12-21T06:40:33.293Z,635.00
2023-12-21T06:41:33.305Z,636.00
2023-12-21T06:42:33.301Z,638.00
2023-12-21T06:43:33.345Z,650.00
2023-12-21T06:44:33.335Z,648.00
2023-12-21T06:45:33.364Z,652.00
2023-12-21T06:46:34.325Z,648.00
2023-12-21T06:47:33.375Z,642.00
2023-12-21T06:48:33.455Z,640.00
2023-12-21T06:49:33.533Z,634.00
2023-12-21T06:50:33.697Z,632.00
2023-12-21T06:51:33.440Z,635.00
2023-12-21T06:52:33.487Z,636.00
2023-12-21T06:53:33.458Z,643.00
2023-12-21T06:54:33.453Z,649.00
2023-12-21T06:55:33.491Z,648.00
2023-12-21T06:56:35.178Z,654.00
2023-12-21T06:57:33.481Z,655.00
2023-12-21T06:58:33.549Z,655.00
2023-12-21T06:59:33.510Z,655.00
2023-12-21T07:00:33.473Z,657.00
2023-12-21T07:01:33.909Z,654.00
2023-12-21T07:02:33.475Z,656.00
2023-12-21T07:03:33.530Z,653.00
2023-12-21T07:04:33.533Z,649.00
2023-12-21T07:05:33.553Z,653.00
2023-12-21T07:06:33.795Z,650.00
2023-12-21T07:07:33.626Z,651.00
2023-12-21T07:08:33.588Z,652.00
2023-12-21T07:09:33.602Z,653.00
2023-12-21T07:10:33.730Z,653.00
2023-12-21T07:11:33.803Z,648.00
2023-12-21T07:12:33.745Z,647.00
2023-12-21T07:13:33.781Z,647.00
2023-12-21T07:14:33.778Z,647.00
2023-12-21T07:15:33.809Z,643.00
2023-12-21T07:16:34.307Z,652.00
2023-12-21T07:17:33.972Z,656.00
2023-12-21T07:18:33.952Z,652.00
2023-12-21T07:19:34.037Z,648.00
2023-12-21T07:20:34.058Z,650.00
2023-12-21T07:21:34.299Z,653.00
2023-12-21T07:22:34.101Z,647.00
2023-12-21T07:23:34.144Z,647.00
2023-12-21T07:24:34.140Z,652.00
2023-12-21T07:25:34.249Z,647.00
2023-12-21T07:26:35.176Z,642.00
2023-12-21T07:27:34.421Z,640.00
2023-12-21T07:28:34.463Z,636.00
2023-12-21T07:29:34.494Z,635.00
2023-12-21T07:30:34.565Z,629.00
2023-12-21T07:31:34.846Z,625.00
2023-12-21T07:32:34.621Z,628.00
2023-12-21T07:33:34.645Z,616.00
2023-12-21T07:34:34.702Z,612.00
2023-12-21T07:35:34.723Z,612.00
2023-12-21T07:36:34.842Z,618.00
2023-12-21T07:37:34.854Z,625.00
2023-12-21T07:38:34.896Z,632.00
2023-12-21T07:39:34.930Z,637.00
2023-12-21T07:40:35.022Z,636.00
2023-12-21T07:41:35.311Z,645.00
2023-12-21T07:42:35.050Z,645.00
2023-12-21T07:43:35.189Z,643.00
2023-12-21T07:44:35.112Z,648.00
2023-12-21T07:45:35.170Z,658.00
2023-12-21T07:46:35.373Z,656.00
2023-12-21T07:47:35.255Z,654.00
2023-12-21T07:48:35.287Z,654.00
2023-12-21T07:49:35.342Z,654.00
2023-12-21T07:50:35.330Z,654.00
2023-12-21T07:51:35.811Z,658.00
2023-12-21T07:52:35.469Z,660.00
2023-12-21T07:53:35.483Z,660.00
2023-12-21T07:54:35.490Z,665.00
2023-12-21T07:55:35.564Z,668.00
2023-12-21T07:56:35.866Z,666.00
2023-12-21T07:57:35.589Z,666.00
2023-12-21T07:58:35.703Z,661.00
2023-12-21T07:59:35.680Z,661.00
2023-12-21T08:00:35.710Z,664.00
2023-12-21T08:01:35.877Z,661.00
2023-12-21T08:02:35.728Z,655.00
2023-12-21T08:03:35.831Z,656.00
2023-12-21T08:04:36.030Z,654.00
2023-12-21T08:05:35.828Z,650.00
2023-12-21T08:06:36.332Z,657.00
2023-12-21T08:07:35.956Z,661.00
2023-12-21T08:08:39.669Z,658.00
2023-12-21T08:09:36.973Z,659.00
2023-12-21T08:10:37.251Z,659.00
2023-12-21T08:11:36.837Z,660.00
2023-12-21T08:12:35.911Z,664.00
2023-12-21T08:13:35.969Z,666.00
2023-12-21T08:14:35.905Z,665.00
2023-12-21T08:15:35.928Z,672.00
2023-12-21T08:16:37.881Z,668.00
2023-12-21T08:17:35.898Z,666.00
2023-12-21T08:18:35.916Z,668.00
2023-12-21T08:19:35.932Z,666.00
2023-12-21T08:20:35.841Z,666.00
2023-12-21T08:21:36.339Z,664.00
2023-12-21T08:22:35.850Z,663.00
2023-12-21T08:23:35.835Z,674.00
2023-12-21T08:24:35.846Z,676.00
2023-12-21T08:25:35.926Z,675.00
2023-12-21T08:26:36.332Z,652.00
2023-12-21T08:27:36.330Z,650.00
2023-12-21T08:28:36.056Z,653.00
2023-12-21T08:29:35.958Z,652.00
2023-12-21T08:30:35.998Z,659.00
2023-12-21T08:31:36.041Z,657.00
2023-12-21T08:32:36.361Z,658.00
2023-12-21T08:33:36.160Z,651.00
2023-12-21T08:34:36.074Z,655.00
2023-12-21T08:35:36.069Z,659.00
2023-12-21T08:36:36.117Z,662.00
2023-12-21T08:37:36.366Z,661.00
2023-12-21T08:38:37.040Z,658.00
2023-12-21T08:39:36.250Z,659.00
2023-12-21T08:40:36.324Z,656.00
2023-12-21T08:41:36.344Z,654.00
2023-12-21T08:42:36.861Z,653.00
2023-12-21T08:43:36.476Z,658.00
2023-12-21T08:44:36.433Z,655.00
2023-12-21T08:45:36.452Z,652.00
2023-12-21T08:46:36.494Z,654.00
2023-12-21T08:47:36.885Z,653.00
2023-12-21T08:48:36.529Z,656.00
2023-12-21T08:49:36.630Z,652.00
2023-12-21T08:50:36.657Z,652.00
2023-12-21T08:51:36.829Z,652.00
2023-12-21T08:52:36.633Z,652.00
2023-12-21T08:53:36.591Z,650.00
2023-12-21T08:54:36.621Z,651.00
2023-12-21T08:55:36.665Z,654.00
2023-12-21T08:56:36.855Z,653.00
2023-12-21T08:57:36.849Z,650.00
2023-12-21T08:58:36.729Z,652.00
2023-12-21T08:59:36.735Z,651.00
2023-12-21T09:00:36.820Z,651.00
2023-12-21T09:01:36.938Z,652.00
2023-12-21T09:02:36.831Z,652.00
2023-12-21T09:03:36.887Z,652.00
2023-12-21T09:04:36.887Z,655.00
2023-12-21T09:05:36.910Z,651.00
2023-12-21T09:06:37.369Z,659.00
2023-12-21T09:07:36.949Z,658.00
2023-12-21T09:08:36.936Z,658.00
2023-12-21T09:09:36.970Z,653.00
2023-12-21T09:10:37.015Z,655.00
2023-12-21T09:11:37.358Z,652.00
2023-12-21T09:12:36.990Z,650.00
2023-12-21T09:13:37.371Z,653.00
2023-12-21T09:14:37.036Z,650.00
2023-12-21T09:15:37.033Z,653.00
2023-12-21T09:16:37.372Z,655.00
2023-12-21T09:17:37.092Z,649.00
2023-12-21T09:18:37.172Z,649.00
2023-12-21T09:19:37.134Z,652.00
2023-12-21T09:20:37.113Z,646.00
2023-12-21T09:21:37.335Z,648.00
2023-12-21T09:22:37.230Z,626.00
2023-12-21T09:23:37.338Z,607.00
2023-12-21T09:24:37.248Z,600.00
2023-12-21T09:25:37.356Z,601.00
2023-12-21T09:26:37.408Z,607.00
2023-12-21T09:27:37.349Z,618.00
2023-12-21T09:28:38.079Z,624.00
2023-12-21T09:29:37.496Z,621.00
2023-12-21T09:30:37.567Z,628.00
2023-12-21T09:31:37.677Z,636.00
2023-12-21T09:32:37.603Z,634.00
2023-12-21T09:33:37.644Z,640.00
2023-12-21T09:34:37.795Z,651.00
2023-12-21T09:35:37.686Z,643.00
2023-12-21T09:36:37.879Z,644.00
2023-12-21T09:37:37.816Z,655.00
2023-12-21T09:38:37.859Z,659.00
2023-12-21T09:39:37.833Z,676.00
2023-12-21T09:40:37.943Z,693.00
2023-12-21T09:41:43.528Z,708.00
2023-12-21T09:42:38.911Z,709.00
2023-12-21T09:43:37.988Z,711.00
2023-12-21T09:44:37.983Z,714.00
2023-12-21T09:45:38.037Z,703.00
2023-12-21T09:46:38.425Z,700.00
2023-12-21T09:47:38.116Z,705.00
2023-12-21T09:48:38.184Z,722.00
2023-12-21T09:49:38.358Z,716.00
2023-12-21T09:50:38.127Z,693.00
2023-12-21T09:51:38.129Z,696.00
2023-12-21T09:52:38.458Z,723.00
2023-12-21T09:53:38.210Z,745.00
2023-12-21T09:54:38.161Z,754.00
2023-12-21T09:55:38.234Z,778.00
2023-12-21T09:56:38.212Z,778.00
2023-12-21T09:57:38.380Z,783.00
2023-12-21T09:58:38.425Z,797.00
2023-12-21T09:59:38.307Z,792.00
2023-12-21T10:00:38.328Z,783.00
2023-12-21T10:01:38.353Z,782.00
2023-12-21T10:02:38.372Z,777.00
2023-12-21T10:03:38.914Z,777.00
2023-12-21T10:04:38.449Z,761.00
2023-12-21T10:05:38.459Z,766.00
2023-12-21T10:06:38.494Z,777.00
2023-12-21T10:07:38.913Z,767.00
2023-12-21T10:08:38.891Z,782.00
2023-12-21T10:09:38.428Z,769.00
2023-12-21T10:10:38.451Z,765.00
2023-12-21T10:11:38.391Z,758.00
2023-12-21T10:12:38.878Z,770.00
2023-12-21T10:13:38.429Z,761.00
2023-12-21T10:14:38.353Z,754.00
2023-12-21T10:15:38.316Z,748.00
2023-12-21T10:16:38.392Z,752.00
2023-12-21T10:17:38.466Z,756.00
2023-12-21T10:18:38.376Z,760.00
2023-12-21T10:19:38.350Z,762.00
2023-12-21T10:20:38.258Z,759.00
2023-12-21T10:21:38.246Z,766.00
2023-12-21T10:22:38.440Z,767.00
2023-12-21T10:23:38.207Z,762.00
2023-12-21T10:24:38.230Z,760.00
2023-12-21T10:25:38.206Z,754.00
2023-12-21T10:26:38.165Z,749.00
2023-12-21T10:27:38.385Z,732.00
2023-12-21T10:28:38.226Z,712.00
2023-12-21T10:29:38.130Z,691.00
2023-12-21T10:30:38.108Z,685.00
2023-12-21T10:31:38.119Z,665.00
2023-12-21T10:32:38.430Z,664.00
2023-12-21T10:33:38.082Z,670.00
2023-12-21T10:34:38.306Z,667.00
2023-12-21T10:35:38.050Z,661.00
2023-12-21T10:36:38.036Z,665.00
2023-12-21T10:37:38.421Z,675.00
2023-12-21T10:38:38.002Z,665.00
2023-12-21T10:39:37.995Z,674.00
2023-12-21T10:40:38.015Z,668.00
2023-12-21T10:41:37.943Z,673.00
2023-12-21T10:42:38.374Z,674.00
2023-12-21T10:43:37.951Z,682.00
2023-12-21T10:44:37.890Z,675.00
2023-12-21T10:45:37.850Z,668.00
2023-12-21T10:46:37.990Z,664.00
2023-12-21T10:47:38.235Z,663.00
2023-12-21T10:48:37.920Z,658.00
2023-12-21T10:49:37.954Z,655.00
2023-12-21T10:50:37.965Z,657.00
2023-12-21T10:51:37.779Z,654.00
2023-12-21T10:52:37.956Z,659.00
2023-12-21T10:53:37.766Z,659.00
2023-12-21T10:54:37.776Z,657.00
2023-12-21T10:55:37.811Z,659.00
2023-12-21T10:56:37.842Z,659.00
2023-12-21T10:57:37.752Z,652.00
2023-12-21T10:58:37.797Z,651.00
2023-12-21T10:59:37.806Z,651.00
2023-12-21T11:00:37.893Z,649.00
2023-12-21T11:01:37.922Z,642.00
2023-12-21T11:02:39.293Z,650.00
2023-12-21T11:03:37.956Z,651.00
2023-12-21T11:04:38.050Z,647.00
2023-12-21T11:05:38.174Z,653.00
2023-12-21T11:06:38.039Z,642.00
2023-12-21T11:07:38.498Z,645.00
2023-12-21T11:08:38.152Z,650.00
2023-12-21T11:09:38.127Z,645.00
2023-12-21T11:10:38.430Z,638.00
2023-12-21T11:11:38.163Z,639.00
2023-12-21T11:12:38.398Z,641.00
2023-12-21T11:13:38.350Z,644.00
2023-12-21T11:14:38.272Z,639.00
2023-12-21T11:15:38.281Z,638.00
2023-12-21T11:16:38.338Z,638.00
2023-12-21T11:17:38.432Z,631.00
2023-12-21T11:18:38.417Z,631.00
2023-12-21T11:19:38.557Z,635.00
2023-12-21T11:20:45.428Z,628.00
2023-12-21T11:21:39.425Z,628.00
2023-12-21T11:22:38.997Z,627.00
2023-12-21T11:23:38.432Z,626.00
2023-12-21T11:24:38.424Z,629.00
2023-12-21T11:25:38.437Z,631.00
2023-12-21T11:26:38.441Z,635.00
2023-12-21T11:27:38.399Z,638.00
2023-12-21T11:28:38.485Z,645.00
2023-12-21T11:29:38.367Z,646.00
2023-12-21T11:30:38.351Z,642.00
2023-12-21T11:31:38.362Z,644.00
2023-12-21T11:32:38.372Z,646.00
2023-12-21T11:33:38.539Z,650.00
2023-12-21T11:34:38.405Z,657.00
2023-12-21T11:35:38.375Z,656.00
2023-12-21T11:36:38.386Z,653.00
2023-12-21T11:37:38.918Z,657.00
2023-12-21T11:38:38.459Z,658.00
2023-12-21T11:39:38.465Z,660.00
2023-12-21T11:40:38.613Z,659.00
2023-12-21T11:41:38.488Z,665.00
2023-12-21T11:42:38.496Z,659.00
2023-12-21T11:43:38.539Z,666.00
2023-12-21T11:44:38.556Z,657.00
2023-12-21T11:45:38.584Z,662.00
2023-12-21T11:46:38.685Z,666.00
2023-12-21T11:47:39.031Z,680.00
2023-12-21T11:48:38.748Z,677.00
2023-12-21T11:49:38.860Z,675.00
2023-12-21T11:50:38.765Z,665.00
2023-12-21T11:51:38.808Z,674.00
2023-12-21T11:52:39.011Z,666.00
2023-12-21T11:53:45.740Z,686.00
2023-12-21T11:54:39.876Z,686.00
2023-12-21T11:55:38.903Z,686.00
2023-12-21T11:56:38.846Z,688.00
2023-12-21T11:57:38.835Z,688.00
2023-12-21T11:58:38.912Z,683.00
2023-12-21T11:59:38.858Z,694.00
2023-12-21T12:00:38.790Z,695.00
2023-12-21T12:01:38.902Z,696.00
2023-12-21T12:02:38.947Z,690.00
2023-12-21T12:03:38.773Z,691.00
2023-12-21T12:04:38.750Z,690.00
2023-12-21T12:05:38.733Z,694.00
2023-12-21T12:06:38.673Z,699.00
2023-12-21T12:07:38.959Z,700.00
2023-12-21T12:08:38.647Z,692.00
2023-12-21T12:09:38.656Z,684.00
2023-12-21T12:10:38.700Z,692.00
2023-12-21T12:11:38.729Z,692.00
2023-12-21T12:12:38.948Z,689.00
2023-12-21T12:13:38.892Z,666.00
2023-12-21T12:14:38.815Z,666.00
2023-12-21T12:15:38.931Z,665.00
2023-12-21T12:16:38.841Z,663.00
2023-12-21T12:17:40.428Z,679.00
2023-12-21T12:18:38.953Z,672.00
2023-12-21T12:19:39.130Z,675.00
2023-12-21T12:20:38.958Z,677.00
2023-12-21T12:21:39.041Z,689.00
2023-12-21T12:22:39.133Z,684.00
2023-12-21T12:23:39.610Z,681.00
2023-12-21T12:24:39.136Z,681.00
2023-12-21T12:25:43.707Z,692.00
2023-12-21T12:26:40.156Z,693.00
2023-12-21T12:27:39.136Z,695.00
2023-12-21T12:28:39.154Z,694.00
2023-12-21T12:29:39.175Z,680.00